sensor_id;sensor_type;location;lat;lon;timestamp;P1;durP1;ratioP1;P2;durP2;ratioP2
60354;SDS011;46198;51.464;-0.066;2023-06-19T00:00:34;34.50;;;22.40;;
60354;SDS011;46198;51.464;-0.066;2023-06-19T00:03:03;33.53;;;22.25;;
60354;SDS011;46198;51.464;-0.066;2023-06-19T00:05:31;36.72;;;21.50;;
60354;SDS011;46198;51.464;-0.066;2023-06-19T00:07:59;35.78;;;23.05;;
60354;SDS011;46198;51.464;-0.066;2023-06-19T00:10:27;35.03;;;21.55;;
60354;SDS011;46198;51.464;-0.066;2023-06-19T00:12:55;35.97;;;21.80;;
60354;SDS011;46198;51.464;-0.066;2023-06-19T00:15:23;36.22;;;21.60;;
60354;SDS011;46198;51.464;-0.066;2023-06-19T00:17:53;40.05;;;22.38;;
60354;SDS011;46198;51.464;-0.066;2023-06-19T00:20:21;38.47;;;22.10;;
60354;SDS011;46198;51.464;-0.066;2023-06-19T00:22:49;36.13;;;21.42;;
60354;SDS011;46198;51.464;-0.066;2023-06-19T00:25:18;39.08;;;21.38;;
60354;SDS011;46198;51.464;-0.066;2023-06-19T00:27:47;39.92;;;22.50;;
60354;SDS011;46198;51.464;-0.066;2023-06-19T00:30:15;42.97;;;21.75;;
60354;SDS011;46198;51.464;-0.066;2023-06-19T00:32:44;38.90;;;20.80;;
60354;SDS011;46198;51.464;-0.066;2023-06-19T00:35:18;39.70;;;21.35;;
60354;SDS011;46198;51.464;-0.066;2023-06-19T00:40:17;41.05;;;20.48;;
60354;SDS011;46198;51.464;-0.066;2023-06-19T00:42:52;36.88;;;19.95;;
60354;SDS011;46198;51.464;-0.066;2023-06-19T00:45:20;31.80;;;19.50;;
60354;SDS011;46198;51.464;-0.066;2023-06-19T00:47:48;35.92;;;20.63;;
60354;SDS011;46198;51.464;-0.066;2023-06-19T00:50:18;32.15;;;20.08;;
60354;SDS011;46198;51.464;-0.066;2023-06-19T00:52:46;36.47;;;20.00;;
60354;SDS011;46198;51.464;-0.066;2023-06-19T00:55:15;34.30;;;19.90;;
60354;SDS011;46198;51.464;-0.066;2023-06-19T00:57:45;33.47;;;19.60;;
60354;SDS011;46198;51.464;-0.066;2023-06-19T01:00:13;33.58;;;19.65;;
60354;SDS011;46198;51.464;-0.066;2023-06-19T01:02:42;35.55;;;18.92;;
60354;SDS011;46198;51.464;-0.066;2023-06-19T01:05:10;34.47;;;19.40;;
60354;SDS011;46198;51.464;-0.066;2023-06-19T01:07:48;37.65;;;19.42;;
60354;SDS011;46198;51.464;-0.066;2023-06-19T01:10:24;34.08;;;19.75;;
60354;SDS011;46198;51.464;-0.066;2023-06-19T01:15:23;33.28;;;18.73;;
60354;SDS011;46198;51.464;-0.066;2023-06-19T01:17:53;30.05;;;17.42;;
60354;SDS011;46198;51.464;-0.066;2023-06-19T01:20:22;33.45;;;18.02;;
60354;SDS011;46198;51.464;-0.066;2023-06-19T01:22:53;31.23;;;17.48;;
60354;SDS011;46198;51.464;-0.066;2023-06-19T01:25:23;33.25;;;18.73;;
60354;SDS011;46198;51.464;-0.066;2023-06-19T01:27:51;32.08;;;17.95;;
60354;SDS011;46198;51.464;-0.066;2023-06-19T01:30:20;33.42;;;17.70;;
60354;SDS011;46198;51.464;-0.066;2023-06-19T01:32:50;29.95;;;16.63;;
60354;SDS011;46198;51.464;-0.066;2023-06-19T01:35:25;26.60;;;16.02;;
60354;SDS011;46198;51.464;-0.066;2023-06-19T01:37:58;32.33;;;17.70;;
60354;SDS011;46198;51.464;-0.066;2023-06-19T01:40:31;28.70;;;15.85;;
60354;SDS011;46198;51.464;-0.066;2023-06-19T01:43:01;34.65;;;17.02;;
60354;SDS011;46198;51.464;-0.066;2023-06-19T01:45:31;33.17;;;17.97;;
60354;SDS011;46198;51.464;-0.066;2023-06-19T01:47:59;27.80;;;17.00;;
60354;SDS011;46198;51.464;-0.066;2023-06-19T01:50:28;29.20;;;17.60;;
60354;SDS011;46198;51.464;-0.066;2023-06-19T01:52:56;28.05;;;16.38;;
60354;SDS011;46198;51.464;-0.066;2023-06-19T01:55:25;32.45;;;16.50;;
60354;SDS011;46198;51.464;-0.066;2023-06-19T01:57:53;29.60;;;15.98;;
60354;SDS011;46198;51.464;-0.066;2023-06-19T02:00:22;29.38;;;16.30;;
60354;SDS011;46198;51.464;-0.066;2023-06-19T02:02:50;30.98;;;17.13;;
60354;SDS011;46198;51.464;-0.066;2023-06-19T02:05:19;30.05;;;16.88;;
60354;SDS011;46198;51.464;-0.066;2023-06-19T02:07:47;30.88;;;16.83;;
60354;SDS011;46198;51.464;-0.066;2023-06-19T02:10:15;32.72;;;17.20;;
60354;SDS011;46198;51.464;-0.066;2023-06-19T02:12:44;31.17;;;18.02;;
60354;SDS011;46198;51.464;-0.066;2023-06-19T02:15:12;29.17;;;16.27;;
60354;SDS011;46198;51.464;-0.066;2023-06-19T02:17:41;31.08;;;17.38;;
60354;SDS011;46198;51.464;-0.066;2023-06-19T02:20:09;32.13;;;17.27;;
60354;SDS011;46198;51.464;-0.066;2023-06-19T02:22:38;27.95;;;16.02;;
60354;SDS011;46198;51.464;-0.066;2023-06-19T02:25:07;35.85;;;17.10;;
60354;SDS011;46198;51.464;-0.066;2023-06-19T02:27:35;32.13;;;17.27;;
60354;SDS011;46198;51.464;-0.066;2023-06-19T02:30:05;30.88;;;17.20;;
60354;SDS011;46198;51.464;-0.066;2023-06-19T02:32:34;34.47;;;17.58;;
60354;SDS011;46198;51.464;-0.066;2023-06-19T02:35:02;30.90;;;16.92;;
60354;SDS011;46198;51.464;-0.066;2023-06-19T02:37:32;27.40;;;17.00;;
60354;SDS011;46198;51.464;-0.066;2023-06-19T02:40:02;25.55;;;14.95;;
60354;SDS011;46198;51.464;-0.066;2023-06-19T02:42:32;27.13;;;15.63;;
60354;SDS011;46198;51.464;-0.066;2023-06-19T02:45:03;25.40;;;15.45;;
60354;SDS011;46198;51.464;-0.066;2023-06-19T02:47:35;27.42;;;15.80;;
60354;SDS011;46198;51.464;-0.066;2023-06-19T02:50:04;24.70;;;13.60;;
60354;SDS011;46198;51.464;-0.066;2023-06-19T02:55:03;26.42;;;13.90;;
60354;SDS011;46198;51.464;-0.066;2023-06-19T02:57:34;29.02;;;14.65;;
60354;SDS011;46198;51.464;-0.066;2023-06-19T03:00:02;24.15;;;13.30;;
60354;SDS011;46198;51.464;-0.066;2023-06-19T03:02:35;26.52;;;14.70;;
60354;SDS011;46198;51.464;-0.066;2023-06-19T03:05:03;24.35;;;14.07;;
60354;SDS011;46198;51.464;-0.066;2023-06-19T03:07:32;24.83;;;13.77;;
60354;SDS011;46198;51.464;-0.066;2023-06-19T03:10:00;23.45;;;13.45;;
60354;SDS011;46198;51.464;-0.066;2023-06-19T03:12:29;23.17;;;12.88;;
60354;SDS011;46198;51.464;-0.066;2023-06-19T03:14:57;23.30;;;13.98;;
60354;SDS011;46198;51.464;-0.066;2023-06-19T03:17:30;21.80;;;12.13;;
60354;SDS011;46198;51.464;-0.066;2023-06-19T03:20:00;21.77;;;13.27;;
60354;SDS011;46198;51.464;-0.066;2023-06-19T03:22:28;22.95;;;13.50;;
60354;SDS011;46198;51.464;-0.066;2023-06-19T03:24:57;20.90;;;12.55;;
60354;SDS011;46198;51.464;-0.066;2023-06-19T03:27:25;20.55;;;11.80;;
60354;SDS011;46198;51.464;-0.066;2023-06-19T03:29:53;20.80;;;12.45;;
60354;SDS011;46198;51.464;-0.066;2023-06-19T03:32:31;22.33;;;12.95;;
60354;SDS011;46198;51.464;-0.066;2023-06-19T03:35:03;18.63;;;10.70;;
60354;SDS011;46198;51.464;-0.066;2023-06-19T03:37:35;20.60;;;12.45;;
60354;SDS011;46198;51.464;-0.066;2023-06-19T03:40:04;20.38;;;12.07;;
60354;SDS011;46198;51.464;-0.066;2023-06-19T03:42:38;17.38;;;11.25;;
60354;SDS011;46198;51.464;-0.066;2023-06-19T03:45:07;18.85;;;11.13;;
60354;SDS011;46198;51.464;-0.066;2023-06-19T03:47:35;17.60;;;10.88;;
60354;SDS011;46198;51.464;-0.066;2023-06-19T03:50:06;18.30;;;11.27;;
60354;SDS011;46198;51.464;-0.066;2023-06-19T03:52:47;16.77;;;10.10;;
60354;SDS011;46198;51.464;-0.066;2023-06-19T03:55:15;14.82;;;9.52;;
60354;SDS011;46198;51.464;-0.066;2023-06-19T03:57:43;15.55;;;9.80;;
60354;SDS011;46198;51.464;-0.066;2023-06-19T04:00:11;18.27;;;11.15;;
60354;SDS011;46198;51.464;-0.066;2023-06-19T04:02:42;18.50;;;10.82;;
60354;SDS011;46198;51.464;-0.066;2023-06-19T04:07:42;13.73;;;8.82;;
60354;SDS011;46198;51.464;-0.066;2023-06-19T04:10:13;21.05;;;10.88;;
60354;SDS011;46198;51.464;-0.066;2023-06-19T04:12:42;15.38;;;9.20;;
60354;SDS011;46198;51.464;-0.066;2023-06-19T04:15:11;15.70;;;10.02;;
60354;SDS011;46198;51.464;-0.066;2023-06-19T04:17:40;16.63;;;9.60;;
60354;SDS011;46198;51.464;-0.066;2023-06-19T04:20:08;22.67;;;11.82;;
60354;SDS011;46198;51.464;-0.066;2023-06-19T04:22:48;19.80;;;11.05;;
60354;SDS011;46198;51.464;-0.066;2023-06-19T04:27:45;17.08;;;10.63;;
60354;SDS011;46198;51.464;-0.066;2023-06-19T04:30:14;22.83;;;11.93;;
60354;SDS011;46198;51.464;-0.066;2023-06-19T04:32:42;22.17;;;12.25;;
60354;SDS011;46198;51.464;-0.066;2023-06-19T04:35:11;20.02;;;11.35;;
60354;SDS011;46198;51.464;-0.066;2023-06-19T04:37:39;24.65;;;12.93;;
60354;SDS011;46198;51.464;-0.066;2023-06-19T04:40:09;22.75;;;12.98;;
60354;SDS011;46198;51.464;-0.066;2023-06-19T04:42:38;23.27;;;12.55;;
60354;SDS011;46198;51.464;-0.066;2023-06-19T04:45:06;25.48;;;13.32;;
60354;SDS011;46198;51.464;-0.066;2023-06-19T04:47:36;24.75;;;13.75;;
60354;SDS011;46198;51.464;-0.066;2023-06-19T04:50:18;24.25;;;13.73;;
60354;SDS011;46198;51.464;-0.066;2023-06-19T04:52:46;27.05;;;12.60;;
60354;SDS011;46198;51.464;-0.066;2023-06-19T04:55:19;24.77;;;13.57;;
60354;SDS011;46198;51.464;-0.066;2023-06-19T04:57:47;24.08;;;14.68;;
60354;SDS011;46198;51.464;-0.066;2023-06-19T05:00:16;24.48;;;13.25;;
60354;SDS011;46198;51.464;-0.066;2023-06-19T05:02:46;26.33;;;13.90;;
60354;SDS011;46198;51.464;-0.066;2023-06-19T05:05:14;22.10;;;12.63;;
60354;SDS011;46198;51.464;-0.066;2023-06-19T05:07:43;27.10;;;13.23;;
60354;SDS011;46198;51.464;-0.066;2023-06-19T05:10:13;25.88;;;12.38;;
60354;SDS011;46198;51.464;-0.066;2023-06-19T05:12:42;23.63;;;12.60;;
60354;SDS011;46198;51.464;-0.066;2023-06-19T05:15:10;27.42;;;13.00;;
60354;SDS011;46198;51.464;-0.066;2023-06-19T05:17:38;25.83;;;13.88;;
60354;SDS011;46198;51.464;-0.066;2023-06-19T05:20:07;23.42;;;12.57;;
60354;SDS011;46198;51.464;-0.066;2023-06-19T05:22:36;24.00;;;13.75;;
60354;SDS011;46198;51.464;-0.066;2023-06-19T05:25:04;23.65;;;13.20;;
60354;SDS011;46198;51.464;-0.066;2023-06-19T05:27:33;28.90;;;14.13;;
60354;SDS011;46198;51.464;-0.066;2023-06-19T05:30:03;25.42;;;13.70;;
60354;SDS011;46198;51.464;-0.066;2023-06-19T05:32:32;20.02;;;12.25;;
60354;SDS011;46198;51.464;-0.066;2023-06-19T05:35:00;23.30;;;12.52;;
60354;SDS011;46198;51.464;-0.066;2023-06-19T05:37:28;24.35;;;13.73;;
60354;SDS011;46198;51.464;-0.066;2023-06-19T05:39:56;24.15;;;12.45;;
60354;SDS011;46198;51.464;-0.066;2023-06-19T05:42:24;22.73;;;12.45;;
60354;SDS011;46198;51.464;-0.066;2023-06-19T05:44:53;23.92;;;12.90;;
60354;SDS011;46198;51.464;-0.066;2023-06-19T05:47:22;21.95;;;12.15;;
60354;SDS011;46198;51.464;-0.066;2023-06-19T05:49:52;21.63;;;12.63;;
60354;SDS011;46198;51.464;-0.066;2023-06-19T05:52:20;24.38;;;12.63;;
60354;SDS011;46198;51.464;-0.066;2023-06-19T05:54:48;21.58;;;12.52;;
60354;SDS011;46198;51.464;-0.066;2023-06-19T05:57:17;22.60;;;12.50;;
60354;SDS011;46198;51.464;-0.066;2023-06-19T05:59:47;23.95;;;12.25;;
60354;SDS011;46198;51.464;-0.066;2023-06-19T06:02:16;25.08;;;12.70;;
60354;SDS011;46198;51.464;-0.066;2023-06-19T06:04:47;20.90;;;12.93;;
60354;SDS011;46198;51.464;-0.066;2023-06-19T06:07:15;20.10;;;11.90;;
60354;SDS011;46198;51.464;-0.066;2023-06-19T06:09:43;22.95;;;13.10;;
60354;SDS011;46198;51.464;-0.066;2023-06-19T06:12:12;24.40;;;12.93;;
60354;SDS011;46198;51.464;-0.066;2023-06-19T06:14:40;25.35;;;13.20;;
60354;SDS011;46198;51.464;-0.066;2023-06-19T06:17:08;22.52;;;12.73;;
60354;SDS011;46198;51.464;-0.066;2023-06-19T06:19:36;24.77;;;13.80;;
60354;SDS011;46198;51.464;-0.066;2023-06-19T06:22:07;22.92;;;13.68;;
60354;SDS011;46198;51.464;-0.066;2023-06-19T06:24:35;22.95;;;13.68;;
60354;SDS011;46198;51.464;-0.066;2023-06-19T06:27:03;23.10;;;12.05;;
60354;SDS011;46198;51.464;-0.066;2023-06-19T06:29:31;25.67;;;13.07;;
60354;SDS011;46198;51.464;-0.066;2023-06-19T06:32:03;22.67;;;13.13;;
60354;SDS011;46198;51.464;-0.066;2023-06-19T06:34:32;21.50;;;11.68;;
60354;SDS011;46198;51.464;-0.066;2023-06-19T06:37:01;22.30;;;12.00;;
60354;SDS011;46198;51.464;-0.066;2023-06-19T06:39:33;22.33;;;12.25;;
60354;SDS011;46198;51.464;-0.066;2023-06-19T06:42:02;20.83;;;12.20;;
60354;SDS011;46198;51.464;-0.066;2023-06-19T06:44:30;22.52;;;11.60;;
60354;SDS011;46198;51.464;-0.066;2023-06-19T06:46:58;20.27;;;10.55;;
60354;SDS011;46198;51.464;-0.066;2023-06-19T06:49:26;18.90;;;10.65;;
60354;SDS011;46198;51.464;-0.066;2023-06-19T06:51:54;20.58;;;11.40;;
60354;SDS011;46198;51.464;-0.066;2023-06-19T06:54:23;16.65;;;10.55;;
60354;SDS011;46198;51.464;-0.066;2023-06-19T06:56:53;16.15;;;11.07;;
60354;SDS011;46198;51.464;-0.066;2023-06-19T06:59:23;21.63;;;10.32;;
60354;SDS011;46198;51.464;-0.066;2023-06-19T07:01:54;21.15;;;10.55;;
60354;SDS011;46198;51.464;-0.066;2023-06-19T07:04:23;19.60;;;11.57;;
60354;SDS011;46198;51.464;-0.066;2023-06-19T07:06:51;21.00;;;10.98;;
60354;SDS011;46198;51.464;-0.066;2023-06-19T07:09:19;19.88;;;11.52;;
60354;SDS011;46198;51.464;-0.066;2023-06-19T07:11:48;20.67;;;12.20;;
60354;SDS011;46198;51.464;-0.066;2023-06-19T07:16:49;18.05;;;10.85;;
60354;SDS011;46198;51.464;-0.066;2023-06-19T07:19:17;20.55;;;10.82;;
60354;SDS011;46198;51.464;-0.066;2023-06-19T07:21:45;21.63;;;10.95;;
60354;SDS011;46198;51.464;-0.066;2023-06-19T07:24:14;19.48;;;11.20;;
60354;SDS011;46198;51.464;-0.066;2023-06-19T07:26:42;18.75;;;10.70;;
60354;SDS011;46198;51.464;-0.066;2023-06-19T07:29:10;18.50;;;10.80;;
60354;SDS011;46198;51.464;-0.066;2023-06-19T07:31:39;16.63;;;10.38;;
60354;SDS011;46198;51.464;-0.066;2023-06-19T07:34:09;16.00;;;9.90;;
60354;SDS011;46198;51.464;-0.066;2023-06-19T07:36:37;16.75;;;9.73;;
60354;SDS011;46198;51.464;-0.066;2023-06-19T07:39:05;17.23;;;9.20;;
60354;SDS011;46198;51.464;-0.066;2023-06-19T07:41:33;16.17;;;9.45;;
60354;SDS011;46198;51.464;-0.066;2023-06-19T07:44:01;15.40;;;10.00;;
60354;SDS011;46198;51.464;-0.066;2023-06-19T07:46:29;15.45;;;9.43;;
60354;SDS011;46198;51.464;-0.066;2023-06-19T07:48:59;16.55;;;9.27;;
60354;SDS011;46198;51.464;-0.066;2023-06-19T07:51:27;13.30;;;8.73;;
60354;SDS011;46198;51.464;-0.066;2023-06-19T07:53:55;13.00;;;8.07;;
60354;SDS011;46198;51.464;-0.066;2023-06-19T07:56:23;12.85;;;8.50;;
60354;SDS011;46198;51.464;-0.066;2023-06-19T07:58:51;15.18;;;8.15;;
60354;SDS011;46198;51.464;-0.066;2023-06-19T08:01:19;12.32;;;8.18;;
60354;SDS011;46198;51.464;-0.066;2023-06-19T08:03:47;10.55;;;7.45;;
60354;SDS011;46198;51.464;-0.066;2023-06-19T08:06:17;13.15;;;8.43;;
60354;SDS011;46198;51.464;-0.066;2023-06-19T08:08:45;14.45;;;8.32;;
60354;SDS011;46198;51.464;-0.066;2023-06-19T08:11:13;14.00;;;7.75;;
60354;SDS011;46198;51.464;-0.066;2023-06-19T08:13:42;12.63;;;7.65;;
60354;SDS011;46198;51.464;-0.066;2023-06-19T08:16:10;15.43;;;7.10;;
60354;SDS011;46198;51.464;-0.066;2023-06-19T08:18:38;13.93;;;7.32;;
60354;SDS011;46198;51.464;-0.066;2023-06-19T08:21:06;12.95;;;7.28;;
60354;SDS011;46198;51.464;-0.066;2023-06-19T08:23:35;15.25;;;7.55;;
60354;SDS011;46198;51.464;-0.066;2023-06-19T08:26:04;9.23;;;6.30;;
60354;SDS011;46198;51.464;-0.066;2023-06-19T08:31:03;8.10;;;5.43;;
60354;SDS011;46198;51.464;-0.066;2023-06-19T08:33:31;7.95;;;5.20;;
60354;SDS011;46198;51.464;-0.066;2023-06-19T08:35:59;10.85;;;5.28;;
60354;SDS011;46198;51.464;-0.066;2023-06-19T08:38:27;9.18;;;4.90;;
60354;SDS011;46198;51.464;-0.066;2023-06-19T08:40:56;10.05;;;5.20;;
60354;SDS011;46198;51.464;-0.066;2023-06-19T08:43:24;9.02;;;5.15;;
60354;SDS011;46198;51.464;-0.066;2023-06-19T08:45:54;11.80;;;5.80;;
60354;SDS011;46198;51.464;-0.066;2023-06-19T08:48:34;7.32;;;6.03;;
60354;SDS011;46198;51.464;-0.066;2023-06-19T08:51:02;12.30;;;6.25;;
60354;SDS011;46198;51.464;-0.066;2023-06-19T08:53:33;10.13;;;6.07;;
60354;SDS011;46198;51.464;-0.066;2023-06-19T08:56:05;10.93;;;5.95;;
60354;SDS011;46198;51.464;-0.066;2023-06-19T08:58:33;8.30;;;5.43;;
60354;SDS011;46198;51.464;-0.066;2023-06-19T09:01:01;12.60;;;5.57;;
60354;SDS011;46198;51.464;-0.066;2023-06-19T09:03:30;9.38;;;5.75;;
60354;SDS011;46198;51.464;-0.066;2023-06-19T09:06:02;9.45;;;5.40;;
60354;SDS011;46198;51.464;-0.066;2023-06-19T09:08:31;9.63;;;5.18;;
60354;SDS011;46198;51.464;-0.066;2023-06-19T09:11:00;9.65;;;5.63;;
60354;SDS011;46198;51.464;-0.066;2023-06-19T09:13:31;8.40;;;4.45;;
60354;SDS011;46198;51.464;-0.066;2023-06-19T09:16:03;6.05;;;4.90;;
60354;SDS011;46198;51.464;-0.066;2023-06-19T09:18:41;10.18;;;4.63;;
60354;SDS011;46198;51.464;-0.066;2023-06-19T09:21:16;8.60;;;5.07;;
60354;SDS011;46198;51.464;-0.066;2023-06-19T09:23:45;12.25;;;4.55;;
60354;SDS011;46198;51.464;-0.066;2023-06-19T09:26:16;6.78;;;4.60;;
60354;SDS011;46198;51.464;-0.066;2023-06-19T09:28:47;6.40;;;4.18;;
60354;SDS011;46198;51.464;-0.066;2023-06-19T09:31:17;8.15;;;4.55;;
60354;SDS011;46198;51.464;-0.066;2023-06-19T09:33:45;10.60;;;4.90;;
60354;SDS011;46198;51.464;-0.066;2023-06-19T09:36:13;7.75;;;4.53;;
60354;SDS011;46198;51.464;-0.066;2023-06-19T09:38:42;6.45;;;3.85;;
60354;SDS011;46198;51.464;-0.066;2023-06-19T09:41:13;6.65;;;3.85;;
60354;SDS011;46198;51.464;-0.066;2023-06-19T09:46:15;9.02;;;4.55;;
60354;SDS011;46198;51.464;-0.066;2023-06-19T09:48:46;6.93;;;4.45;;
60354;SDS011;46198;51.464;-0.066;2023-06-19T09:51:21;8.70;;;4.45;;
60354;SDS011;46198;51.464;-0.066;2023-06-19T09:53:55;6.22;;;4.20;;
60354;SDS011;46198;51.464;-0.066;2023-06-19T09:56:25;7.50;;;4.35;;
60354;SDS011;46198;51.464;-0.066;2023-06-19T09:58:56;7.30;;;4.60;;
60354;SDS011;46198;51.464;-0.066;2023-06-19T10:01:29;7.55;;;3.83;;
60354;SDS011;46198;51.464;-0.066;2023-06-19T10:04:08;6.55;;;4.13;;
60354;SDS011;46198;51.464;-0.066;2023-06-19T10:06:42;5.80;;;3.58;;
60354;SDS011;46198;51.464;-0.066;2023-06-19T10:09:11;8.30;;;3.92;;
60354;SDS011;46198;51.464;-0.066;2023-06-19T10:11:46;9.10;;;3.88;;
60354;SDS011;46198;51.464;-0.066;2023-06-19T10:14:15;7.65;;;4.18;;
60354;SDS011;46198;51.464;-0.066;2023-06-19T10:16:46;8.02;;;4.30;;
60354;SDS011;46198;51.464;-0.066;2023-06-19T10:19:15;7.28;;;5.35;;
60354;SDS011;46198;51.464;-0.066;2023-06-19T10:21:46;6.88;;;4.63;;
60354;SDS011;46198;51.464;-0.066;2023-06-19T10:24:16;7.05;;;4.25;;
60354;SDS011;46198;51.464;-0.066;2023-06-19T10:26:56;9.55;;;4.60;;
60354;SDS011;46198;51.464;-0.066;2023-06-19T10:29:25;10.15;;;4.22;;
60354;SDS011;46198;51.464;-0.066;2023-06-19T10:31:56;9.95;;;4.63;;
60354;SDS011;46198;51.464;-0.066;2023-06-19T10:34:32;8.50;;;4.38;;
60354;SDS011;46198;51.464;-0.066;2023-06-19T10:37:01;5.47;;;4.18;;
60354;SDS011;46198;51.464;-0.066;2023-06-19T10:39:30;6.47;;;4.07;;
60354;SDS011;46198;51.464;-0.066;2023-06-19T10:41:59;5.68;;;4.25;;
60354;SDS011;46198;51.464;-0.066;2023-06-19T10:44:28;10.88;;;4.88;;
60354;SDS011;46198;51.464;-0.066;2023-06-19T10:46:58;8.68;;;5.05;;
60354;SDS011;46198;51.464;-0.066;2023-06-19T10:49:26;9.50;;;5.13;;
60354;SDS011;46198;51.464;-0.066;2023-06-19T10:51:55;8.23;;;4.60;;
60354;SDS011;46198;51.464;-0.066;2023-06-19T10:54:27;7.53;;;3.72;;
60354;SDS011;46198;51.464;-0.066;2023-06-19T10:56:56;8.93;;;4.20;;
60354;SDS011;46198;51.464;-0.066;2023-06-19T10:59:24;6.32;;;4.40;;
60354;SDS011;46198;51.464;-0.066;2023-06-19T11:01:52;6.47;;;3.80;;
60354;SDS011;46198;51.464;-0.066;2023-06-19T11:04:21;6.68;;;3.78;;
60354;SDS011;46198;51.464;-0.066;2023-06-19T11:06:52;5.82;;;3.50;;
60354;SDS011;46198;51.464;-0.066;2023-06-19T11:09:20;7.60;;;3.90;;
60354;SDS011;46198;51.464;-0.066;2023-06-19T11:11:48;6.80;;;3.20;;
60354;SDS011;46198;51.464;-0.066;2023-06-19T11:14:16;6.88;;;3.20;;
60354;SDS011;46198;51.464;-0.066;2023-06-19T11:16:45;7.07;;;3.72;;
60354;SDS011;46198;51.464;-0.066;2023-06-19T11:19:15;6.18;;;3.50;;
60354;SDS011;46198;51.464;-0.066;2023-06-19T11:21:47;4.65;;;3.47;;
60354;SDS011;46198;51.464;-0.066;2023-06-19T11:24:16;6.57;;;3.92;;
60354;SDS011;46198;51.464;-0.066;2023-06-19T11:26:45;4.63;;;2.83;;
60354;SDS011;46198;51.464;-0.066;2023-06-19T11:29:18;5.85;;;3.60;;
60354;SDS011;46198;51.464;-0.066;2023-06-19T11:31:47;6.10;;;4.10;;
60354;SDS011;46198;51.464;-0.066;2023-06-19T11:34:17;6.50;;;3.35;;
60354;SDS011;46198;51.464;-0.066;2023-06-19T11:36:53;5.10;;;3.50;;
60354;SDS011;46198;51.464;-0.066;2023-06-19T11:39:21;5.07;;;3.47;;
60354;SDS011;46198;51.464;-0.066;2023-06-19T11:41:49;5.40;;;3.60;;
60354;SDS011;46198;51.464;-0.066;2023-06-19T11:44:21;6.55;;;3.33;;
60354;SDS011;46198;51.464;-0.066;2023-06-19T11:46:49;7.03;;;3.10;;
60354;SDS011;46198;51.464;-0.066;2023-06-19T11:49:19;6.40;;;3.22;;
60354;SDS011;46198;51.464;-0.066;2023-06-19T11:51:47;5.47;;;3.20;;
60354;SDS011;46198;51.464;-0.066;2023-06-19T11:54:17;6.97;;;3.75;;
60354;SDS011;46198;51.464;-0.066;2023-06-19T11:56:45;7.35;;;3.72;;
60354;SDS011;46198;51.464;-0.066;2023-06-19T11:59:15;6.72;;;3.72;;
60354;SDS011;46198;51.464;-0.066;2023-06-19T12:01:43;5.72;;;3.50;;
60354;SDS011;46198;51.464;-0.066;2023-06-19T12:04:11;5.97;;;3.30;;
60354;SDS011;46198;51.464;-0.066;2023-06-19T12:06:40;5.17;;;3.47;;
60354;SDS011;46198;51.464;-0.066;2023-06-19T12:09:08;5.72;;;3.40;;
60354;SDS011;46198;51.464;-0.066;2023-06-19T12:11:39;4.55;;;3.45;;
60354;SDS011;46198;51.464;-0.066;2023-06-19T12:14:07;5.70;;;3.83;;
60354;SDS011;46198;51.464;-0.066;2023-06-19T12:16:35;7.20;;;3.38;;
60354;SDS011;46198;51.464;-0.066;2023-06-19T12:19:03;6.47;;;4.15;;
60354;SDS011;46198;51.464;-0.066;2023-06-19T12:21:32;7.43;;;3.63;;
60354;SDS011;46198;51.464;-0.066;2023-06-19T12:24:06;4.63;;;2.30;;
60354;SDS011;46198;51.464;-0.066;2023-06-19T12:26:34;6.07;;;2.85;;
60354;SDS011;46198;51.464;-0.066;2023-06-19T12:29:05;4.55;;;2.80;;
60354;SDS011;46198;51.464;-0.066;2023-06-19T12:31:34;4.72;;;3.30;;
60354;SDS011;46198;51.464;-0.066;2023-06-19T12:34:03;4.03;;;2.70;;
60354;SDS011;46198;51.464;-0.066;2023-06-19T12:36:50;4.95;;;2.75;;
60354;SDS011;46198;51.464;-0.066;2023-06-19T12:39:18;5.78;;;2.95;;
60354;SDS011;46198;51.464;-0.066;2023-06-19T12:41:47;4.32;;;2.80;;
60354;SDS011;46198;51.464;-0.066;2023-06-19T12:44:16;4.85;;;2.58;;
60354;SDS011;46198;51.464;-0.066;2023-06-19T12:46:44;6.00;;;2.97;;
60354;SDS011;46198;51.464;-0.066;2023-06-19T12:49:12;5.53;;;2.97;;
60354;SDS011;46198;51.464;-0.066;2023-06-19T12:51:40;5.55;;;3.13;;
60354;SDS011;46198;51.464;-0.066;2023-06-19T12:54:08;5.32;;;2.90;;
60354;SDS011;46198;51.464;-0.066;2023-06-19T12:56:37;5.32;;;2.92;;
60354;SDS011;46198;51.464;-0.066;2023-06-19T12:59:05;7.53;;;4.20;;
60354;SDS011;46198;51.464;-0.066;2023-06-19T13:01:34;4.45;;;3.05;;
60354;SDS011;46198;51.464;-0.066;2023-06-19T13:04:02;5.50;;;2.83;;
60354;SDS011;46198;51.464;-0.066;2023-06-19T13:06:31;5.75;;;3.38;;
60354;SDS011;46198;51.464;-0.066;2023-06-19T13:08:59;5.85;;;2.35;;
60354;SDS011;46198;51.464;-0.066;2023-06-19T13:11:31;5.70;;;3.30;;
60354;SDS011;46198;51.464;-0.066;2023-06-19T13:14:00;5.00;;;3.03;;
60354;SDS011;46198;51.464;-0.066;2023-06-19T13:16:30;4.47;;;2.92;;
60354;SDS011;46198;51.464;-0.066;2023-06-19T13:19:13;4.70;;;2.95;;
60354;SDS011;46198;51.464;-0.066;2023-06-19T13:21:42;7.00;;;3.28;;
60354;SDS011;46198;51.464;-0.066;2023-06-19T13:24:10;6.80;;;3.50;;
60354;SDS011;46198;51.464;-0.066;2023-06-19T13:26:39;6.05;;;2.80;;
60354;SDS011;46198;51.464;-0.066;2023-06-19T13:29:07;4.13;;;2.50;;
60354;SDS011;46198;51.464;-0.066;2023-06-19T13:31:35;5.50;;;3.15;;
60354;SDS011;46198;51.464;-0.066;2023-06-19T13:34:03;5.30;;;3.13;;
60354;SDS011;46198;51.464;-0.066;2023-06-19T13:36:33;5.57;;;2.97;;
60354;SDS011;46198;51.464;-0.066;2023-06-19T13:39:01;6.27;;;3.50;;
60354;SDS011;46198;51.464;-0.066;2023-06-19T13:41:30;4.80;;;2.78;;
60354;SDS011;46198;51.464;-0.066;2023-06-19T13:44:01;5.88;;;3.17;;
60354;SDS011;46198;51.464;-0.066;2023-06-19T13:46:29;5.55;;;3.55;;
60354;SDS011;46198;51.464;-0.066;2023-06-19T13:48:58;8.18;;;3.33;;
60354;SDS011;46198;51.464;-0.066;2023-06-19T13:51:27;5.35;;;2.50;;
60354;SDS011;46198;51.464;-0.066;2023-06-19T13:53:57;5.65;;;3.25;;
60354;SDS011;46198;51.464;-0.066;2023-06-19T13:56:25;4.80;;;3.08;;
60354;SDS011;46198;51.464;-0.066;2023-06-19T13:58:53;4.88;;;3.17;;
60354;SDS011;46198;51.464;-0.066;2023-06-19T14:01:21;4.70;;;2.90;;
60354;SDS011;46198;51.464;-0.066;2023-06-19T14:03:52;6.63;;;3.10;;
60354;SDS011;46198;51.464;-0.066;2023-06-19T14:06:20;4.88;;;2.97;;
60354;SDS011;46198;51.464;-0.066;2023-06-19T14:08:48;5.88;;;3.17;;
60354;SDS011;46198;51.464;-0.066;2023-06-19T14:11:18;3.35;;;2.83;;
60354;SDS011;46198;51.464;-0.066;2023-06-19T14:13:46;4.13;;;2.60;;
60354;SDS011;46198;51.464;-0.066;2023-06-19T14:16:14;5.38;;;3.05;;
60354;SDS011;46198;51.464;-0.066;2023-06-19T14:18:43;5.72;;;3.72;;
60354;SDS011;46198;51.464;-0.066;2023-06-19T14:21:11;6.28;;;2.97;;
60354;SDS011;46198;51.464;-0.066;2023-06-19T14:23:39;4.28;;;2.50;;
60354;SDS011;46198;51.464;-0.066;2023-06-19T14:28:39;4.18;;;2.88;;
60354;SDS011;46198;51.464;-0.066;2023-06-19T14:31:07;4.80;;;2.97;;
60354;SDS011;46198;51.464;-0.066;2023-06-19T14:33:35;6.10;;;2.80;;
60354;SDS011;46198;51.464;-0.066;2023-06-19T14:36:04;4.82;;;2.85;;
60354;SDS011;46198;51.464;-0.066;2023-06-19T14:38:33;6.28;;;3.15;;
60354;SDS011;46198;51.464;-0.066;2023-06-19T14:41:01;6.68;;;2.60;;
60354;SDS011;46198;51.464;-0.066;2023-06-19T14:43:30;6.20;;;3.42;;
60354;SDS011;46198;51.464;-0.066;2023-06-19T14:46:01;7.00;;;3.08;;
60354;SDS011;46198;51.464;-0.066;2023-06-19T14:48:31;6.30;;;2.55;;
60354;SDS011;46198;51.464;-0.066;2023-06-19T14:51:00;4.47;;;2.40;;
60354;SDS011;46198;51.464;-0.066;2023-06-19T14:53:28;3.93;;;2.70;;
60354;SDS011;46198;51.464;-0.066;2023-06-19T14:55:56;7.18;;;2.92;;